sensor_id;sensor_type;location;lat;lon;timestamp;pressure;altitude;pressure_sealevel;temperature;humidity
24486;BME280;13449;49.374;8.584;2023-12-20T00:01:17;100857.66;;;4.67;100.00
24486;BME280;13449;49.374;8.584;2023-12-20T00:03:44;100846.44;;;4.65;100.00
24486;BME280;13449;49.374;8.584;2023-12-20T00:06:19;100855.19;;;4.64;100.00
24486;BME280;13449;49.374;8.584;2023-12-20T00:08:55;100850.72;;;4.66;100.00
24486;BME280;13449;49.374;8.584;2023-12-20T00:11:21;100850.66;;;4.67;100.00
24486;BME280;13449;49.374;8.584;2023-12-20T00:13:51;100849.81;;;4.67;100.00
24486;BME280;13449;49.374;8.584;2023-12-20T00:16:18;100856.72;;;4.68;100.00
24486;BME280;13449;49.374;8.584;2023-12-20T00:18:45;100848.13;;;4.66;100.00
24486;BME280;13449;49.374;8.584;2023-12-20T00:21:15;100848.13;;;4.66;100.00
24486;BME280;13449;49.374;8.584;2023-12-20T00:23:44;100845.59;;;4.64;100.00
24486;BME280;13449;49.374;8.584;2023-12-20T00:26:10;100843.81;;;4.65;100.00
24486;BME280;13449;49.374;8.584;2023-12-20T00:28:43;100848.13;;;4.66;100.00
24486;BME280;13449;49.374;8.584;2023-12-20T00:31:12;100839.38;;;4.67;100.00
24486;BME280;13449;49.374;8.584;2023-12-20T00:33:41;100835.84;;;4.68;100.00
24486;BME280;13449;49.374;8.584;2023-12-20T00:36:10;100842.91;;;4.66;100.00
24486;BME280;13449;49.374;8.584;2023-12-20T00:38:40;100835.84;;;4.68;100.00
24486;BME280;13449;49.374;8.584;2023-12-20T00:41:10;100831.47;;;4.68;100.00
24486;BME280;13449;49.374;8.584;2023-12-20T00:43:40;100834.16;;;4.67;100.00
24486;BME280;13449;49.374;8.584;2023-12-20T00:46:09;100829.72;;;4.69;100.00
24486;BME280;13449;49.374;8.584;2023-12-20T00:48:38;100829.72;;;4.69;100.00
24486;BME280;13449;49.374;8.584;2023-12-20T00:51:10;100832.31;;;4.69;100.00
24486;BME280;13449;49.374;8.584;2023-12-20T00:53:37;100823.56;;;4.70;100.00
24486;BME280;13449;49.374;8.584;2023-12-20T00:56:04;100820.97;;;4.70;100.00
24486;BME280;13449;49.374;8.584;2023-12-20T00:58:33;100822.72;;;4.69;100.00
24486;BME280;13449;49.374;8.584;2023-12-20T01:01:04;100817.44;;;4.71;100.00
24486;BME280;13449;49.374;8.584;2023-12-20T01:03:31;100815.66;;;4.71;100.00
24486;BME280;13449;49.374;8.584;2023-12-20T01:05:59;100806.22;;;4.69;100.00
24486;BME280;13449;49.374;8.584;2023-12-20T01:08:48;100821.72;;;4.72;100.00
24486;BME280;13449;49.374;8.584;2023-12-20T01:11:28;100820.88;;;4.71;100.00
24486;BME280;13449;49.374;8.584;2023-12-20T01:14:01;100823.44;;;4.73;100.00
24486;BME280;13449;49.374;8.584;2023-12-20T01:16:30;100820.97;;;4.70;100.00
24486;BME280;13449;49.374;8.584;2023-12-20T01:19:04;100808.75;;;4.70;100.00
24486;BME280;13449;49.374;8.584;2023-12-20T01:21:41;100803.47;;;4.72;100.00
24486;BME280;13449;49.374;8.584;2023-12-20T01:24:13;100806.22;;;4.69;100.00
24486;BME280;13449;49.374;8.584;2023-12-20T01:26:57;100800.84;;;4.72;100.00
24486;BME280;13449;49.374;8.584;2023-12-20T01:29:27;100796.63;;;4.69;100.00
24486;BME280;13449;49.374;8.584;2023-12-20T01:31:58;100806.22;;;4.69;100.00
24486;BME280;13449;49.374;8.584;2023-12-20T01:34:24;100795.63;;;4.72;100.00
24486;BME280;13449;49.374;8.584;2023-12-20T01:36:54;100788.81;;;4.69;100.00
24486;BME280;13449;49.374;8.584;2023-12-20T01:39:30;100780.97;;;4.69;100.00
24486;BME280;13449;49.374;8.584;2023-12-20T01:42:12;100783.66;;;4.68;100.00
24486;BME280;13449;49.374;8.584;2023-12-20T01:44:48;100791.50;;;4.68;100.00
24486;BME280;13449;49.374;8.584;2023-12-20T01:47:30;100794.09;;;4.68;100.00
24486;BME280;13449;49.374;8.584;2023-12-20T01:50:00;100790.72;;;4.66;100.00
24486;BME280;13449;49.374;8.584;2023-12-20T01:52:31;100791.56;;;4.66;100.00
24486;BME280;13449;49.374;8.584;2023-12-20T01:55:15;100791.63;;;4.65;100.00
24486;BME280;13449;49.374;8.584;2023-12-20T01:57:44;100796.00;;;4.64;100.00
24486;BME280;13449;49.374;8.584;2023-12-20T02:00:14;100800.31;;;4.65;100.00
24486;BME280;13449;49.374;8.584;2023-12-20T02:02:50;100796.09;;;4.63;100.00
24486;BME280;13449;49.374;8.584;2023-12-20T02:05:21;100794.25;;;4.65;100.00
24486;BME280;13449;49.374;8.584;2023-12-20T02:07:51;100791.72;;;4.63;100.00
24486;BME280;13449;49.374;8.584;2023-12-20T02:10:23;100803.00;;;4.64;100.00
24486;BME280;13449;49.374;8.584;2023-12-20T02:12:50;100806.53;;;4.63;100.00
24486;BME280;13449;49.374;8.584;2023-12-20T02:15:16;100799.63;;;4.62;100.00
24486;BME280;13449;49.374;8.584;2023-12-20T02:17:46;100801.47;;;4.60;100.00
24486;BME280;13449;49.374;8.584;2023-12-20T02:20:14;100800.69;;;4.58;100.00
24486;BME280;13449;49.374;8.584;2023-12-20T02:22:41;100799.78;;;4.59;100.00
24486;BME280;13449;49.374;8.584;2023-12-20T02:25:11;100798.91;;;4.58;100.00
24486;BME280;13449;49.374;8.584;2023-12-20T02:27:38;100792.84;;;4.58;100.00
24486;BME280;13449;49.374;8.584;2023-12-20T02:30:06;100798.06;;;4.58;100.00
24486;BME280;13449;49.374;8.584;2023-12-20T02:32:35;100788.41;;;4.60;100.00
24486;BME280;13449;49.374;8.584;2023-12-20T02:35:03;100797.94;;;4.61;100.00
24486;BME280;13449;49.374;8.584;2023-12-20T02:37:30;100791.03;;;4.60;100.00
24486;BME280;13449;49.374;8.584;2023-12-20T02:42:46;100806.59;;;4.61;100.00
24486;BME280;13449;49.374;8.584;2023-12-20T02:45:16;100808.28;;;4.62;100.00
24486;BME280;13449;49.374;8.584;2023-12-20T02:47:43;100812.66;;;4.62;100.00
24486;BME280;13449;49.374;8.584;2023-12-20T02:50:10;100814.44;;;4.61;100.00
24486;BME280;13449;49.374;8.584;2023-12-20T02:52:37;100807.44;;;4.62;100.00
24486;BME280;13449;49.374;8.584;2023-12-20T02:55:08;100787.50;;;4.61;100.00
24486;BME280;13449;49.374;8.584;2023-12-20T02:57:45;100781.34;;;4.62;100.00
24486;BME280;13449;49.374;8.584;2023-12-20T03:00:12;100774.53;;;4.59;100.00
24486;BME280;13449;49.374;8.584;2023-12-20T03:02:43;100788.41;;;4.60;100.00
24486;BME280;13449;49.374;8.584;2023-12-20T03:05:10;100798.78;;;4.61;100.00
24486;BME280;13449;49.374;8.584;2023-12-20T03:07:37;100791.03;;;4.60;100.00
24486;BME280;13449;49.374;8.584;2023-12-20T03:10:05;100795.41;;;4.59;100.00
24486;BME280;13449;49.374;8.584;2023-12-20T03:12:45;100804.97;;;4.59;100.00
24486;BME280;13449;49.374;8.584;2023-12-20T03:15:14;100793.69;;;4.58;100.00
24486;BME280;13449;49.374;8.584;2023-12-20T03:17:41;100785.91;;;4.57;100.00
24486;BME280;13449;49.374;8.584;2023-12-20T03:20:08;100792.84;;;4.58;100.00
24486;BME280;13449;49.374;8.584;2023-12-20T03:22:35;100798.06;;;4.58;100.00
24486;BME280;13449;49.374;8.584;2023-12-20T03:25:02;100792.84;;;4.58;100.00
24486;BME280;13449;49.374;8.584;2023-12-20T03:27:28;100805.91;;;4.58;100.00
24486;BME280;13449;49.374;8.584;2023-12-20T03:29:55;100807.59;;;4.59;100.00
24486;BME280;13449;49.374;8.584;2023-12-20T03:32:21;100813.72;;;4.58;100.00
24486;BME280;13449;49.374;8.584;2023-12-20T03:34:47;100804.97;;;4.59;100.00
24486;BME280;13449;49.374;8.584;2023-12-20T03:37:15;100792.84;;;4.58;100.00
24486;BME280;13449;49.374;8.584;2023-12-20T03:39:41;100798.97;;;4.57;100.00
24486;BME280;13449;49.374;8.584;2023-12-20T03:42:08;100797.19;;;4.57;100.00
24486;BME280;13449;49.374;8.584;2023-12-20T03:44:38;100810.25;;;4.57;100.00
24486;BME280;13449;49.374;8.584;2023-12-20T03:47:05;100798.06;;;4.58;100.00
24486;BME280;13449;49.374;8.584;2023-12-20T03:49:32;100804.97;;;4.59;100.00
24486;BME280;13449;49.374;8.584;2023-12-20T03:52:01;100792.84;;;4.58;100.00
24486;BME280;13449;49.374;8.584;2023-12-20T03:54:27;100798.91;;;4.58;100.00
24486;BME280;13449;49.374;8.584;2023-12-20T03:56:54;100794.56;;;4.59;100.00
24486;BME280;13449;49.374;8.584;2023-12-20T03:59:20;100798.84;;;4.60;100.00
24486;BME280;13449;49.374;8.584;2023-12-20T04:01:47;100798.84;;;4.60;100.00
24486;BME280;13449;49.374;8.584;2023-12-20T04:04:13;100788.34;;;4.61;100.00
24486;BME280;13449;49.374;8.584;2023-12-20T04:06:43;100790.94;;;4.61;100.00
24486;BME280;13449;49.374;8.584;2023-12-20T04:09:12;100789.34;;;4.59;100.00
24486;BME280;13449;49.374;8.584;2023-12-20T04:11:38;100797.16;;;4.59;100.00
24486;BME280;13449;49.374;8.584;2023-12-20T04:14:05;100799.78;;;4.59;100.00
24486;BME280;13449;49.374;8.584;2023-12-20T04:16:31;100799.69;;;4.60;100.00
24486;BME280;13449;49.374;8.584;2023-12-20T04:18:58;100805.84;;;4.59;100.00
24486;BME280;13449;49.374;8.584;2023-12-20T04:21:25;100805.69;;;4.62;100.00
24486;BME280;13449;49.374;8.584;2023-12-20T04:23:51;100801.38;;;4.61;100.00
24486;BME280;13449;49.374;8.584;2023-12-20T04:26:17;100804.97;;;4.59;100.00
24486;BME280;13449;49.374;8.584;2023-12-20T04:28:46;100823.19;;;4.60;100.00
24486;BME280;13449;49.374;8.584;2023-12-20T04:31:12;100815.28;;;4.62;100.00
24486;BME280;13449;49.374;8.584;2023-12-20T04:33:39;100816.13;;;4.62;100.00
24486;BME280;13449;49.374;8.584;2023-12-20T04:36:06;100821.34;;;4.62;100.00
24486;BME280;13449;49.374;8.584;2023-12-20T04:38:33;100818.56;;;4.65;100.00
24486;BME280;13449;49.374;8.584;2023-12-20T04:40:59;100831.63;;;4.65;100.00
24486;BME280;13449;49.374;8.584;2023-12-20T04:43:26;100833.38;;;4.65;100.00
24486;BME280;13449;49.374;8.584;2023-12-20T04:45:52;100832.47;;;4.66;100.00
24486;BME280;13449;49.374;8.584;2023-12-20T04:48:19;100823.72;;;4.67;100.00
24486;BME280;13449;49.374;8.584;2023-12-20T04:50:45;100834.16;;;4.67;100.00
24486;BME280;13449;49.374;8.584;2023-12-20T04:53:12;100853.34;;;4.66;100.00
24486;BME280;13449;49.374;8.584;2023-12-20T04:55:38;100829.94;;;4.64;100.00
24486;BME280;13449;49.374;8.584;2023-12-20T04:58:05;100842.00;;;4.67;100.00
24486;BME280;13449;49.374;8.584;2023-12-20T05:00:32;100836.78;;;4.67;100.00
24486;BME280;13449;49.374;8.584;2023-12-20T05:02:59;100830.63;;;4.68;100.00
24486;BME280;13449;49.374;8.584;2023-12-20T05:05:25;100842.00;;;4.67;100.00
24486;BME280;13449;49.374;8.584;2023-12-20T05:07:52;100840.28;;;4.66;100.00
24486;BME280;13449;49.374;8.584;2023-12-20T05:10:19;100848.13;;;4.66;100.00
24486;BME280;13449;49.374;8.584;2023-12-20T05:12:45;100850.72;;;4.66;100.00
24486;BME280;13449;49.374;8.584;2023-12-20T05:15:12;100852.56;;;4.64;100.00
24486;BME280;13449;49.374;8.584;2023-12-20T05:17:38;100856.88;;;4.65;100.00
24486;BME280;13449;49.374;8.584;2023-12-20T05:20:06;100861.25;;;4.64;100.00
24486;BME280;13449;49.374;8.584;2023-12-20T05:22:33;100863.94;;;4.63;100.00
24486;BME280;13449;49.374;8.584;2023-12-20T05:24:59;100869.16;;;4.63;100.00
24486;BME280;13449;49.374;8.584;2023-12-20T05:27:26;100867.47;;;4.62;100.00
24486;BME280;13449;49.374;8.584;2023-12-20T05:29:52;100859.63;;;4.62;100.00
24486;BME280;13449;49.374;8.584;2023-12-20T05:32:19;100855.47;;;4.58;100.00
24486;BME280;13449;49.374;8.584;2023-12-20T05:34:45;100862.38;;;4.59;100.00
24486;BME280;13449;49.374;8.584;2023-12-20T05:37:14;100872.81;;;4.59;100.00
24486;BME280;13449;49.374;8.584;2023-12-20T05:39:40;100871.91;;;4.60;100.00
24486;BME280;13449;49.374;8.584;2023-12-20T05:42:10;100868.44;;;4.59;100.00
24486;BME280;13449;49.374;8.584;2023-12-20T05:44:36;100861.53;;;4.58;100.00
24486;BME280;13449;49.374;8.584;2023-12-20T05:47:03;100870.97;;;4.61;100.00
24486;BME280;13449;49.374;8.584;2023-12-20T05:49:30;100874.50;;;4.60;100.00
24486;BME280;13449;49.374;8.584;2023-12-20T05:51:58;100870.97;;;4.61;100.00
24486;BME280;13449;49.374;8.584;2023-12-20T05:54:24;100877.03;;;4.61;100.00
24486;BME280;13449;49.374;8.584;2023-12-20T05:56:51;100898.84;;;4.60;100.00
24486;BME280;13449;49.374;8.584;2023-12-20T05:59:17;100911.75;;;4.63;100.00
24486;BME280;13449;49.374;8.584;2023-12-20T06:01:44;100913.50;;;4.63;100.00
24486;BME280;13449;49.374;8.584;2023-12-20T06:04:10;100911.81;;;4.62;100.00
24486;BME280;13449;49.374;8.584;2023-12-20T06:06:42;100918.72;;;4.63;100.00
24486;BME280;13449;49.374;8.584;2023-12-20T06:09:09;100928.25;;;4.64;100.00
24486;BME280;13449;49.374;8.584;2023-12-20T06:11:35;100935.16;;;4.65;100.00
24486;BME280;13449;49.374;8.584;2023-12-20T06:14:02;100938.69;;;4.64;100.00
24486;BME280;13449;49.374;8.584;2023-12-20T06:16:28;100941.22;;;4.65;100.00
24486;BME280;13449;49.374;8.584;2023-12-20T06:18:55;100956.72;;;4.68;100.00
24486;BME280;13449;49.374;8.584;2023-12-20T06:21:22;100948.81;;;4.70;100.00
24486;BME280;13449;49.374;8.584;2023-12-20T06:23:48;100955.63;;;4.74;100.00
24486;BME280;13449;49.374;8.584;2023-12-20T06:26:15;100964.50;;;4.89;100.00
24486;BME280;13449;49.374;8.584;2023-12-20T06:28:41;100962.50;;;4.95;100.00
24486;BME280;13449;49.374;8.584;2023-12-20T06:31:08;100951.69;;;5.03;100.00
24486;BME280;13449;49.374;8.584;2023-12-20T06:33:36;100951.59;;;5.04;100.00
24486;BME280;13449;49.374;8.584;2023-12-20T06:36:02;100954.09;;;5.07;100.00
24486;BME280;13449;49.374;8.584;2023-12-20T06:38:31;100946.38;;;5.04;100.00
24486;BME280;13449;49.374;8.584;2023-12-20T06:40:58;100954.38;;;5.01;100.00
24486;BME280;13449;49.374;8.584;2023-12-20T06:43:25;100958.88;;;4.98;100.00
24486;BME280;13449;49.374;8.584;2023-12-20T06:45:56;100964.41;;;4.92;100.00
24486;BME280;13449;49.374;8.584;2023-12-20T06:48:23;100969.72;;;4.89;100.00
24486;BME280;13449;49.374;8.584;2023-12-20T06:50:49;100971.63;;;4.85;100.00
24486;BME280;13449;49.374;8.584;2023-12-20T06:53:18;100964.34;;;4.73;100.00
24486;BME280;13449;49.374;8.584;2023-12-20T06:55:44;100966.41;;;4.66;100.00
24486;BME280;13449;49.374;8.584;2023-12-20T06:58:11;100972.66;;;4.62;100.00
24486;BME280;13449;49.374;8.584;2023-12-20T07:00:37;100973.50;;;4.63;100.00
24486;BME280;13449;49.374;8.584;2023-12-20T07:03:04;100977.03;;;4.62;100.00
24486;BME280;13449;49.374;8.584;2023-12-20T07:05:31;100980.44;;;4.64;100.00
24486;BME280;13449;49.374;8.584;2023-12-20T07:07:57;100974.22;;;4.66;100.00
24486;BME280;13449;49.374;8.584;2023-12-20T07:10:24;100972.25;;;4.71;100.00
24486;BME280;13449;49.374;8.584;2023-12-20T07:12:53;100972.59;;;4.64;100.00
24486;BME280;13449;49.374;8.584;2023-12-20T07:15:22;100962.63;;;4.53;100.00
24486;BME280;13449;49.374;8.584;2023-12-20T07:17:51;100959.66;;;4.42;100.00
24486;BME280;13449;49.374;8.584;2023-12-20T07:20:17;100956.31;;;4.38;100.00
24486;BME280;13449;49.374;8.584;2023-12-20T07:22:44;100963.81;;;4.26;100.00
24486;BME280;13449;49.374;8.584;2023-12-20T07:25:12;100963.59;;;4.10;100.00
24486;BME280;13449;49.374;8.584;2023-12-20T07:27:39;100964.13;;;3.98;100.00
24486;BME280;13449;49.374;8.584;2023-12-20T07:30:10;100952.50;;;3.84;100.00
24486;BME280;13449;49.374;8.584;2023-12-20T07:32:37;100959.69;;;3.79;100.00
24486;BME280;13449;49.374;8.584;2023-12-20T07:35:03;100961.72;;;3.71;100.00
24486;BME280;13449;49.374;8.584;2023-12-20T07:37:31;100961.00;;;3.68;100.00
24486;BME280;13449;49.374;8.584;2023-12-20T07:39:57;100967.13;;;3.67;100.00
24486;BME280;13449;49.374;8.584;2023-12-20T07:42:24;100975.66;;;3.70;100.00
24486;BME280;13449;49.374;8.584;2023-12-20T07:44:50;100962.09;;;3.62;100.00
24486;BME280;13449;49.374;8.584;2023-12-20T07:47:19;100966.22;;;3.68;100.00
24486;BME280;13449;49.374;8.584;2023-12-20T07:49:51;100971.38;;;3.69;100.00
24486;BME280;13449;49.374;8.584;2023-12-20T07:52:18;100976.44;;;3.72;100.00
24486;BME280;13449;49.374;8.584;2023-12-20T07:54:46;100986.22;;;3.67;100.00
24486;BME280;13449;49.374;8.584;2023-12-20T07:57:12;100987.91;;;3.68;100.00
24486;BME280;13449;49.374;8.584;2023-12-20T07:59:39;101000.16;;;3.66;100.00
24486;BME280;13449;49.374;8.584;2023-12-20T08:02:05;101005.25;;;3.69;100.00
24486;BME280;13449;49.374;8.584;2023-12-20T08:04:32;100994.69;;;3.72;100.00
24486;BME280;13449;49.374;8.584;2023-12-20T08:06:59;101002.69;;;3.68;100.00
24486;BME280;13449;49.374;8.584;2023-12-20T08:09:26;101014.09;;;3.65;100.00
24486;BME280;13449;49.374;8.584;2023-12-20T08:11:53;101008.97;;;3.62;100.00
24486;BME280;13449;49.374;8.584;2023-12-20T08:14:19;101009.03;;;3.60;100.00
24486;BME280;13449;49.374;8.584;2023-12-20T08:16:46;101015.16;;;3.59;100.00
24486;BME280;13449;49.374;8.584;2023-12-20T08:19:12;101001.00;;;3.67;100.00
24486;BME280;13449;49.374;8.584;2023-12-20T08:21:40;101008.75;;;3.68;100.00
24486;BME280;13449;49.374;8.584;2023-12-20T08:24:07;101010.97;;;3.77;100.00
24486;BME280;13449;49.374;8.584;2023-12-20T08:26:33;101009.72;;;3.87;100.00
24486;BME280;13449;49.374;8.584;2023-12-20T08:29:00;101014.84;;;4.11;100.00
24486;BME280;13449;49.374;8.584;2023-12-20T08:31:35;101014.25;;;4.25;100.00
24486;BME280;13449;49.374;8.584;2023-12-20T08:34:04;101027.00;;;4.32;100.00
24486;BME280;13449;49.374;8.584;2023-12-20T08:36:34;101012.91;;;4.36;100.00
24486;BME280;13449;49.374;8.584;2023-12-20T08:39:00;101012.78;;;4.39;100.00
24486;BME280;13449;49.374;8.584;2023-12-20T08:41:27;101020.50;;;4.42;100.00
24486;BME280;13449;49.374;8.584;2023-12-20T08:43:53;101023.09;;;4.42;100.00
24486;BME280;13449;49.374;8.584;2023-12-20T08:46:20;101024.91;;;4.40;100.00
24486;BME280;13449;49.374;8.584;2023-12-20T08:48:47;101029.16;;;4.43;100.00
24486;BME280;13449;49.374;8.584;2023-12-20T08:51:14;101030.59;;;4.50;100.00
24486;BME280;13449;49.374;8.584;2023-12-20T08:53:40;101039.91;;;4.56;100.00
24486;BME280;13449;49.374;8.584;2023-12-20T08:56:10;101029.22;;;4.62;100.00
24486;BME280;13449;49.374;8.584;2023-12-20T08:58:39;101031.63;;;4.66;100.00
24486;BME280;13449;49.374;8.584;2023-12-20T09:01:06;101034.31;;;4.65;100.00
24486;BME280;13449;49.374;8.584;2023-12-20T09:03:34;101031.97;;;4.59;100.00
24486;BME280;13449;49.374;8.584;2023-12-20T09:06:03;101030.31;;;4.56;100.00
24486;BME280;13449;49.374;8.584;2023-12-20T09:08:29;101026.63;;;4.62;100.00
24486;BME280;13449;49.374;8.584;2023-12-20T09:10:58;101020.47;;;4.63;100.00
24486;BME280;13449;49.374;8.584;2023-12-20T09:13:25;101026.75;;;4.59;100.00
24486;BME280;13449;49.374;8.584;2023-12-20T09:15:55;101031.63;;;4.66;100.00
24486;BME280;13449;49.374;8.584;2023-12-20T09:18:22;101041.22;;;4.66;100.00
24486;BME280;13449;49.374;8.584;2023-12-20T09:20:49;101040.94;;;4.72;100.00
24486;BME280;13449;49.374;8.584;2023-12-20T09:23:16;101053.69;;;4.79;100.00
24486;BME280;13449;49.374;8.584;2023-12-20T09:25:43;101051.84;;;4.81;100.00
24486;BME280;13449;49.374;8.584;2023-12-20T09:28:10;101053.25;;;4.89;100.00
24486;BME280;13449;49.374;8.584;2023-12-20T09:30:37;101057.25;;;4.97;100.00
24486;BME280;13449;49.374;8.584;2023-12-20T09:33:06;101053.31;;;5.07;100.00
24486;BME280;13449;49.374;8.584;2023-12-20T09:35:34;101063.50;;;5.14;100.00
24486;BME280;13449;49.374;8.584;2023-12-20T09:38:01;101066.88;;;5.16;100.00
24486;BME280;13449;49.374;8.584;2023-12-20T09:40:27;101072.63;;;5.24;100.00
24486;BME280;13449;49.374;8.584;2023-12-20T09:43:04;101074.03;;;5.31;100.00
24486;BME280;13449;49.374;8.584;2023-12-20T09:45:31;101073.75;;;5.37;100.00
24486;BME280;13449;49.374;8.584;2023-12-20T09:47:58;101071.25;;;5.34;100.00
24486;BME280;13449;49.374;8.584;2023-12-20T09:50:26;101079.19;;;5.51;100.00
24486;BME280;13449;49.374;8.584;2023-12-20T09:52:53;101087.13;;;5.68;100.00
24486;BME280;13449;49.374;8.584;2023-12-20T09:55:24;101084.41;;;5.89;100.00
24486;BME280;13449;49.374;8.584;2023-12-20T09:57:51;101083.16;;;5.97;100.00
24486;BME280;13449;49.374;8.584;2023-12-20T10:00:20;101084.50;;;6.06;100.00
24486;BME280;13449;49.374;8.584;2023-12-20T10:02:50;101087.66;;;6.13;100.00
24486;BME280;13449;49.374;8.584;2023-12-20T10:05:17;101094.56;;;6.14;100.00
24486;BME280;13449;49.374;8.584;2023-12-20T10:07:47;101087.47;;;6.35;100.00
24486;BME280;13449;49.374;8.584;2023-12-20T10:10:14;101088.69;;;6.45;100.00
24486;BME280;13449;49.374;8.584;2023-12-20T10:13:01;101089.69;;;6.42;100.00
24486;BME280;13449;49.374;8.584;2023-12-20T10:15:28;101093.78;;;6.48;100.00
24486;BME280;13449;49.374;8.584;2023-12-20T10:17:55;101098.56;;;6.57;100.00
24486;BME280;13449;49.374;8.584;2023-12-20T10:20:30;101094.72;;;6.64;100.00
24486;BME280;13449;49.374;8.584;2023-12-20T10:23:00;101095.78;;;6.60;100.00
24486;BME280;13449;49.374;8.584;2023-12-20T10:25:27;101099.41;;;6.57;100.00
24486;BME280;13449;49.374;8.584;2023-12-20T10:28:13;101095.78;;;6.60;100.00
24486;BME280;13449;49.374;8.584;2023-12-20T10:30:41;101099.56;;;6.54;100.00
24486;BME280;13449;49.374;8.584;2023-12-20T10:33:08;101097.88;;;6.53;100.00
24486;BME280;13449;49.374;8.584;2023-12-20T10:35:39;101090.09;;;6.52;100.00
24486;BME280;13449;49.374;8.584;2023-12-20T10:38:11;101096.78;;;6.40;100.00
24486;BME280;13449;49.374;8.584;2023-12-20T10:40:40;101094.56;;;6.33;100.00
24486;BME280;13449;49.374;8.584;2023-12-20T10:43:08;101092.06;;;6.29;100.00
24486;BME280;13449;49.374;8.584;2023-12-20T10:45:37;101094.97;;;6.23;100.00
24486;BME280;13449;49.374;8.584;2023-12-20T10:48:04;101098.69;;;6.19;100.00
24486;BME280;13449;49.374;8.584;2023-12-20T10:50:31;101098.94;;;6.13;100.00
24486;BME280;13449;49.374;8.584;2023-12-20T10:52:59;101088.78;;;6.07;100.00
24486;BME280;13449;49.374;8.584;2023-12-20T10:55:26;101104.50;;;6.07;100.00
24486;BME280;13449;49.374;8.584;2023-12-20T10:58:01;101101.25;;;6.02;100.00
24486;BME280;13449;49.374;8.584;2023-12-20T11:00:29;101106.69;;;5.97;100.00
24486;BME280;13449;49.374;8.584;2023-12-20T11:03:00;101116.94;;;6.02;100.00
24486;BME280;13449;49.374;8.584;2023-12-20T11:05:36;101115.38;;;5.98;100.00
24486;BME280;13449;49.374;8.584;2023-12-20T11:08:09;101114.44;;;5.99;100.00
24486;BME280;13449;49.374;8.584;2023-12-20T11:10:48;101113.56;;;6.00;100.00
24486;BME280;13449;49.374;8.584;2023-12-20T11:13:26;101111.84;;;5.99;100.00
24486;BME280;13449;49.374;8.584;2023-12-20T11:15:54;101114.69;;;5.94;100.00
24486;BME280;13449;49.374;8.584;2023-12-20T11:18:28;101117.50;;;5.90;100.00
24486;BME280;13449;49.374;8.584;2023-12-20T11:21:02;101112.41;;;5.87;100.00
24486;BME280;13449;49.374;8.584;2023-12-20T11:23:32;101123.78;;;5.86;100.00
24486;BME280;13449;49.374;8.584;2023-12-20T11:26:01;101115.09;;;5.85;100.00
24486;BME280;13449;49.374;8.584;2023-12-20T11:28:28;101122.00;;;5.86;100.00
24486;BME280;13449;49.374;8.584;2023-12-20T11:31:00;101118.75;;;5.81;100.00
24486;BME280;13449;49.374;8.584;2023-12-20T11:33:37;101110.19;;;5.78;100.00
24486;BME280;13449;49.374;8.584;2023-12-20T11:36:13;101115.34;;;5.79;100.00
24486;BME280;13449;49.374;8.584;2023-12-20T11:38:53;101118.75;;;5.81;100.00
24486;BME280;13449;49.374;8.584;2023-12-20T11:41:22;101119.59;;;5.82;100.00
24486;BME280;13449;49.374;8.584;2023-12-20T11:43:52;101124.97;;;5.79;100.00
24486;BME280;13449;49.374;8.584;2023-12-20T11:46:19;101131.75;;;5.83;100.00
24486;BME280;13449;49.374;8.584;2023-12-20T11:48:47;101131.63;;;5.86;100.00
24486;BME280;13449;49.374;8.584;2023-12-20T11:51:16;101128.81;;;5.90;100.00
24486;BME280;13449;49.374;8.584;2023-12-20T11:53:42;101125.13;;;5.94;100.00
24486;BME280;13449;49.374;8.584;2023-12-20T11:56:10;101132.75;;;5.99;100.00
24486;BME280;13449;49.374;8.584;2023-12-20T11:58:37;101137.88;;;6.02;100.00
24486;BME280;13449;49.374;8.584;2023-12-20T12:01:04;101140.56;;;6.00;100.00
24486;BME280;13449;49.374;8.584;2023-12-20T12:03:35;101132.63;;;6.02;100.00
24486;BME280;13449;49.374;8.584;2023-12-20T12:06:02;101126.63;;;6.00;100.00
24486;BME280;13449;49.374;8.584;2023-12-20T12:08:31;101128.44;;;5.98;100.00
24486;BME280;13449;49.374;8.584;2023-12-20T12:11:00;101125.84;;;5.98;100.00
24486;BME280;13449;49.374;8.584;2023-12-20T12:13:28;101126.81;;;5.95;100.00
24486;BME280;13449;49.374;8.584;2023-12-20T12:15:55;101134.75;;;5.94;100.00
24486;BME280;13449;49.374;8.584;2023-12-20T12:18:22;101129.72;;;5.89;100.00
24486;BME280;13449;49.374;8.584;2023-12-20T12:20:49;101136.84;;;5.86;100.00
24486;BME280;13449;49.374;8.584;2023-12-20T12:23:22;101138.66;;;5.84;100.00
24486;BME280;13449;49.374;8.584;2023-12-20T12:25:49;101136.28;;;5.79;100.00
24486;BME280;13449;49.374;8.584;2023-12-20T12:28:16;101131.19;;;5.76;100.00
24486;BME280;13449;49.374;8.584;2023-12-20T12:30:56;101121.72;;;5.74;100.00
24486;BME280;13449;49.374;8.584;2023-12-20T12:33:24;101114.81;;;5.72;100.00
24486;BME280;13449;49.374;8.584;2023-12-20T12:35:51;101122.72;;;5.71;100.00
24486;BME280;13449;49.374;8.584;2023-12-20T12:38:21;101122.78;;;5.69;100.00
24486;BME280;13449;49.374;8.584;2023-12-20T12:40:49;101119.25;;;5.70;100.00
24486;BME280;13449;49.374;8.584;2023-12-20T12:43:16;101120.81;;;5.75;100.00
24486;BME280;13449;49.374;8.584;2023-12-20T12:45:42;101127.09;;;5.70;100.00
24486;BME280;13449;49.374;8.584;2023-12-20T12:48:10;101119.34;;;5.69;100.00
24486;BME280;13449;49.374;8.584;2023-12-20T12:50:36;101126.31;;;5.68;100.00
24486;BME280;13449;49.374;8.584;2023-12-20T12:53:03;101126.44;;;5.65;100.00
24486;BME280;13449;49.374;8.584;2023-12-20T12:55:33;101123.97;;;5.62;100.00
24486;BME280;13449;49.374;8.584;2023-12-20T12:58:00;101131.03;;;5.60;100.00
24486;BME280;13449;49.374;8.584;2023-12-20T13:00:27;101126.75;;;5.59;100.00